createdAt,value
2016-05-03T00:00:27.227Z,0
2016-05-03T00:01:26.964Z,0
2016-05-03T00:02:27.013Z,0
2016-05-03T00:03:27.048Z,0
2016-05-03T00:04:26.941Z,0
2016-05-03T00:05:27.116Z,0
2016-05-03T00:06:26.837Z,0
2016-05-03T00:07:27.902Z,0
2016-05-03T00:08:27.232Z,0
2016-05-03T00:09:26.955Z,0
2016-05-03T00:10:27.332Z,0
2016-05-03T00:11:27.335Z,0
2016-05-03T00:12:26.901Z,0
2016-05-03T00:13:27.434Z,0
2016-05-03T00:14:27.281Z,0
2016-05-03T00:15:27.502Z,0
2016-05-03T00:16:27.520Z,0
2016-05-03T00:17:27.554Z,0
2016-05-03T00:18:27.589Z,0
2016-05-03T00:19:27.498Z,0
2016-05-03T00:20:27.672Z,0
2016-05-03T00:21:27.706Z,0
2016-05-03T00:22:29.803Z,0
2016-05-03T00:23:27.633Z,0
2016-05-03T00:24:27.792Z,0
2016-05-03T00:25:27.873Z,0
2016-05-03T00:26:27.862Z,0
2016-05-03T00:27:27.927Z,0
2016-05-03T00:28:27.959Z,0
2016-05-03T00:29:27.977Z,0
2016-05-03T00:30:28.031Z,0
2016-05-03T00:31:28.082Z,0
2016-05-03T00:32:28.085Z,0
2016-05-03T00:33:27.962Z,0
2016-05-03T00:34:28.011Z,0
2016-05-03T00:35:28.186Z,0
2016-05-03T00:36:27.923Z,0
2016-05-03T00:37:28.132Z,0
2016-05-03T00:38:28.307Z,0
2016-05-03T00:39:28.184Z,0
2016-05-03T00:40:28.359Z,0
2016-05-03T00:41:28.251Z,0
2016-05-03T00:42:28.443Z,0
2016-05-03T00:43:28.476Z,0
2016-05-03T00:44:28.351Z,0
2016-05-03T00:45:28.557Z,0
2016-05-03T00:46:28.293Z,0
2016-05-03T00:47:28.468Z,0
2016-05-03T00:48:28.674Z,0
2016-05-03T00:49:28.693Z,0
2016-05-03T00:50:28.726Z,0
2016-05-03T00:51:28.761Z,0
2016-05-03T00:52:28.857Z,0
2016-05-03T00:53:28.844Z,0
2016-05-03T00:54:28.737Z,0
2016-05-03T00:55:28.756Z,0
2016-05-03T00:56:28.945Z,0
2016-05-03T00:57:28.964Z,0
2016-05-03T00:58:28.858Z,0
2016-05-03T00:59:29.047Z,0
2016-05-03T01:00:28.925Z,0
2016-05-03T01:01:28.975Z,0
2016-05-03T01:02:29.165Z,0
2016-05-03T01:03:29.184Z,0
2016-05-03T01:04:29.217Z,0
2016-05-03T01:05:29.266Z,0
2016-05-03T01:06:29.302Z,0
2016-05-03T01:07:29.444Z,0
2016-05-03T01:08:29.228Z,0
2016-05-03T01:09:29.402Z,0
2016-05-03T01:10:29.438Z,0
2016-05-03T01:11:29.470Z,0
2016-05-03T01:12:29.505Z,0
2016-05-03T01:13:29.538Z,0
2016-05-03T01:14:29.431Z,0
2016-05-03T01:15:29.466Z,0
2016-05-03T01:16:29.656Z,0
2016-05-03T01:17:29.377Z,0
2016-05-03T01:18:29.723Z,0
2016-05-03T01:19:29.290Z,0
2016-05-03T01:20:29.635Z,0
2016-05-03T01:21:29.826Z,0
2016-05-03T01:22:29.828Z,0
2016-05-03T01:23:29.893Z,0
2016-05-03T01:24:29.943Z,0
2016-05-03T01:25:29.806Z,0
2016-05-03T01:26:29.839Z,0
2016-05-03T01:27:29.873Z,0
2016-05-03T01:28:30.064Z,0
2016-05-03T01:29:30.113Z,0
2016-05-03T01:30:29.834Z,0
2016-05-03T01:31:30.180Z,0
2016-05-03T01:32:30.215Z,0
2016-05-03T01:33:30.092Z,0
2016-05-03T01:34:30.127Z,0
2016-05-03T01:35:30.161Z,0
2016-05-03T01:36:30.194Z,0
2016-05-03T01:37:30.166Z,0
2016-05-03T01:38:30.263Z,0
2016-05-03T01:39:30.452Z,0
2016-05-03T01:40:30.346Z,0
2016-05-03T01:41:44.555Z,0
2016-05-03T01:42:30.570Z,0
2016-05-03T01:43:30.604Z,0
2016-05-03T01:44:30.638Z,0
2016-05-03T01:45:30.531Z,0
2016-05-03T01:46:30.705Z,0
2016-05-03T01:47:30.583Z,0
2016-05-03T01:48:30.774Z,0
2016-05-03T01:49:30.838Z,0
2016-05-03T01:50:30.685Z,0
2016-05-03T01:51:30.891Z,0
2016-05-03T01:52:31.659Z,0
2016-05-03T01:53:30.804Z,0
2016-05-03T01:54:30.837Z,0
2016-05-03T01:55:30.886Z,0
2016-05-03T01:56:30.593Z,0
2016-05-03T01:57:31.095Z,0
2016-05-03T01:58:31.128Z,0
2016-05-03T01:59:31.162Z,0
2016-05-03T02:00:31.040Z,0
2016-05-03T02:01:31.231Z,0
2016-05-03T02:02:31.280Z,0
2016-05-03T02:03:31.142Z,0
2016-05-03T02:04:31.333Z,0
2016-05-03T02:05:31.382Z,0
2016-05-03T02:06:31.417Z,0
2016-05-03T02:07:31.886Z,0
2016-05-03T02:08:31.500Z,0
2016-05-03T02:09:31.502Z,0
2016-05-03T02:10:31.552Z,0
2016-05-03T02:11:31.430Z,0
2016-05-03T02:12:31.463Z,0
2016-05-03T02:13:31.497Z,0
2016-05-03T02:14:31.531Z,0
2016-05-03T02:15:31.721Z,0
2016-05-03T02:16:31.458Z,0
2016-05-03T02:17:31.633Z,0
2016-05-03T02:18:31.823Z,0
2016-05-03T02:19:31.873Z,0
2016-05-03T02:20:31.907Z,0
2016-05-03T02:21:31.941Z,0
2016-05-03T02:22:32.427Z,0
2016-05-03T02:23:31.696Z,0
2016-05-03T02:24:31.886Z,0
2016-05-03T02:25:31.920Z,0
2016-05-03T02:26:31.954Z,0
2016-05-03T02:27:32.129Z,0
2016-05-03T02:28:32.022Z,0
2016-05-03T02:29:32.196Z,0
2016-05-03T02:30:32.074Z,0
2016-05-03T02:31:32.296Z,0
2016-05-03T02:32:32.001Z,0
2016-05-03T02:33:32.347Z,0
2016-05-03T02:34:32.398Z,0
2016-05-03T02:35:32.416Z,0
2016-05-03T02:36:32.450Z,0
2016-05-03T02:37:32.733Z,0
2016-05-03T02:38:32.393Z,0
2016-05-03T02:39:32.567Z,0
2016-05-03T02:40:32.444Z,0
2016-05-03T02:41:32.463Z,0
2016-05-03T02:42:32.669Z,0
2016-05-03T02:43:32.547Z,0
2016-05-03T02:44:32.737Z,0
2016-05-03T02:45:32.771Z,0
2016-05-03T02:46:32.805Z,0
2016-05-03T02:47:32.699Z,0
2016-05-03T02:48:32.872Z,0
2016-05-03T02:49:32.891Z,0
2016-05-03T02:50:32.940Z,0
2016-05-03T02:51:32.835Z,0
2016-05-03T02:52:34.493Z,0
2016-05-03T02:53:33.043Z,0
2016-05-03T02:54:32.764Z,0
2016-05-03T02:55:32.955Z,0
2016-05-03T02:56:33.004Z,0
2016-05-03T02:57:33.179Z,0
2016-05-03T02:58:33.213Z,0
2016-05-03T02:59:33.277Z,0
2016-05-03T03:00:33.296Z,0
2016-05-03T03:01:33.314Z,0
2016-05-03T03:02:33.192Z,0
2016-05-03T03:03:33.398Z,0
2016-05-03T03:04:33.432Z,0
2016-05-03T03:05:33.465Z,0
2016-05-03T03:06:33.359Z,0
2016-05-03T03:07:34.565Z,0
2016-05-03T03:08:33.567Z,0
2016-05-03T03:09:33.616Z,0
2016-05-03T03:10:33.479Z,0
2016-05-03T03:11:33.669Z,0
2016-05-03T03:12:33.719Z,0
2016-05-03T03:13:33.736Z,0
2016-05-03T03:14:33.615Z,0
2016-05-03T03:15:33.805Z,0
2016-05-03T03:16:33.839Z,0
2016-05-03T03:17:33.873Z,0
2016-05-03T03:18:33.641Z,0
2016-05-03T03:19:33.941Z,0
2016-05-03T03:20:33.990Z,0
2016-05-03T03:21:34.008Z,0
2016-05-03T03:22:34.074Z,0
2016-05-03T03:23:33.936Z,0
2016-05-03T03:24:33.969Z,0
2016-05-03T03:25:34.160Z,0
2016-05-03T03:26:34.193Z,0
2016-05-03T03:27:34.212Z,0
2016-05-03T03:28:34.262Z,0
2016-05-03T03:29:34.296Z,0
2016-05-03T03:30:34.018Z,0
2016-05-03T03:31:34.364Z,0
2016-05-03T03:32:34.398Z,0
2016-05-03T03:33:34.276Z,0
2016-05-03T03:34:34.465Z,0
2016-05-03T03:35:34.343Z,0
2016-05-03T03:36:34.377Z,0
2016-05-03T03:37:35.083Z,0
2016-05-03T03:38:34.601Z,0
2016-05-03T03:39:34.495Z,0
2016-05-03T03:40:34.684Z,0
2016-05-03T03:41:34.703Z,0
2016-05-03T03:42:34.737Z,0
2016-05-03T03:43:34.615Z,0
2016-05-03T03:44:34.821Z,0
2016-05-03T03:45:34.854Z,0
2016-05-03T03:46:34.903Z,0
2016-05-03T03:47:34.891Z,0
2016-05-03T03:48:34.941Z,0
2016-05-03T03:49:34.990Z,0
2016-05-03T03:50:34.869Z,0
2016-05-03T03:51:35.058Z,0
2016-05-03T03:52:35.577Z,0
2016-05-03T03:53:35.141Z,0
2016-05-03T03:54:35.160Z,0
2016-05-03T03:55:35.193Z,0
2016-05-03T03:56:35.228Z,0
2016-05-03T03:57:35.262Z,0
2016-05-03T03:58:35.295Z,0
2016-05-03T03:59:35.329Z,0
2016-05-03T04:00:35.566Z,0
2016-05-03T04:01:35.398Z,0
2016-05-03T04:02:35.291Z,0
2016-05-03T04:03:35.481Z,0
2016-05-03T04:04:35.484Z,0
2016-05-03T04:05:35.534Z,0
2016-05-03T04:06:35.568Z,0
2016-05-03T04:07:35.304Z,0
2016-05-03T04:08:35.494Z,0
2016-05-03T04:09:35.684Z,0
2016-05-03T04:10:35.547Z,0
2016-05-03T04:11:35.737Z,0
2016-05-03T04:12:35.787Z,0
2016-05-03T04:13:35.681Z,0
2016-05-03T04:14:35.838Z,0
2016-05-03T04:15:35.872Z,0
2016-05-03T04:16:35.766Z,0
2016-05-03T04:17:35.800Z,0
2016-05-03T04:18:35.834Z,0
2016-05-03T04:19:36.024Z,0
2016-05-03T04:20:36.058Z,0
2016-05-03T04:21:36.112Z,0
2016-05-03T04:22:36.380Z,0
2016-05-03T04:23:36.273Z,0
2016-05-03T04:24:36.182Z,0
2016-05-03T04:25:36.263Z,0
2016-05-03T04:26:36.355Z,0
2016-05-03T04:27:36.390Z,0
2016-05-03T04:28:36.596Z,0
2016-05-03T04:29:36.491Z,0
2016-05-03T04:30:36.557Z,0
2016-05-03T04:31:36.590Z,0
2016-05-03T04:32:36.786Z,0
2016-05-03T04:33:36.843Z,0
2016-05-03T04:34:36.883Z,5
2016-05-03T04:35:36.923Z,5
2016-05-03T04:36:36.962Z,5
2016-05-03T04:37:37.843Z,5
2016-05-03T04:38:36.863Z,0
2016-05-03T04:39:36.898Z,0
2016-05-03T04:40:37.092Z,0
2016-05-03T04:41:37.144Z,0
2016-05-03T04:42:37.006Z,0
2016-05-03T04:43:37.213Z,0
2016-05-03T04:44:37.232Z,0
2016-05-03T04:45:37.283Z,0
2016-05-03T04:46:37.161Z,0
2016-05-03T04:47:37.351Z,0
2016-05-03T04:48:37.401Z,0
2016-05-03T04:49:37.420Z,0
2016-05-03T04:50:37.282Z,0
2016-05-03T04:51:37.488Z,5
2016-05-03T04:52:37.538Z,5
2016-05-03T04:53:37.384Z,5
2016-05-03T04:54:37.434Z,5
2016-05-03T04:55:37.624Z,5
2016-05-03T04:56:37.690Z,5
2016-05-03T04:57:37.692Z,5
2016-05-03T04:58:37.726Z,5
2016-05-03T04:59:37.760Z,10
2016-05-03T05:00:37.637Z,10
2016-05-03T05:01:37.812Z,15
2016-05-03T05:02:37.862Z,15
2016-05-03T05:03:37.896Z,15
2016-05-03T05:04:37.914Z,15
2016-05-03T05:05:37.979Z,15
2016-05-03T05:06:37.700Z,15
2016-05-03T05:07:40.406Z,15
2016-05-03T05:08:37.894Z,15
2016-05-03T05:09:37.944Z,15
2016-05-03T05:10:38.133Z,15
2016-05-03T05:11:37.855Z,10
2016-05-03T05:12:38.186Z,10
2016-05-03T05:13:38.235Z,10
2016-05-03T05:14:38.253Z,10
2016-05-03T05:15:38.147Z,15
2016-05-03T05:16:38.180Z,20
2016-05-03T05:17:38.371Z,20
2016-05-03T05:18:38.405Z,25
2016-05-03T05:19:38.141Z,25
2016-05-03T05:20:38.473Z,30
2016-05-03T05:21:38.491Z,30
2016-05-03T05:22:38.338Z,25
2016-05-03T05:23:38.590Z,25
2016-05-03T05:24:38.280Z,25
2016-05-03T05:25:38.471Z,30
2016-05-03T05:26:38.489Z,35
2016-05-03T05:27:38.913Z,35
2016-05-03T05:28:38.728Z,30
2016-05-03T05:29:38.762Z,35
2016-05-03T05:30:38.796Z,35
2016-05-03T05:31:38.831Z,30
2016-05-03T05:32:38.864Z,25
2016-05-03T05:33:38.898Z,25
2016-05-03T05:34:38.776Z,25
2016-05-03T05:35:38.950Z,25
2016-05-03T05:36:39.000Z,25
2016-05-03T05:37:39.362Z,25
2016-05-03T05:38:38.896Z,25
2016-05-03T05:39:38.931Z,25
2016-05-03T05:40:38.980Z,25
2016-05-03T05:41:39.154Z,25
2016-05-03T05:42:39.203Z,25
2016-05-03T05:43:39.066Z,25
2016-05-03T05:44:39.240Z,25
2016-05-03T05:45:39.305Z,25
2016-05-03T05:46:39.308Z,30
2016-05-03T05:47:39.046Z,30
2016-05-03T05:48:39.407Z,30
2016-05-03T05:49:39.129Z,35
2016-05-03T05:50:39.444Z,35
2016-05-03T05:51:39.494Z,40
2016-05-03T05:52:41.152Z,40
2016-05-03T05:53:39.655Z,40
2016-05-03T05:54:39.565Z,40
2016-05-03T05:55:39.457Z,40
2016-05-03T05:56:39.648Z,45
2016-05-03T05:57:39.541Z,45
2016-05-03T05:58:39.746Z,50
2016-05-03T05:59:39.437Z,50
2016-05-03T06:00:39.784Z,55
2016-05-03T06:01:39.848Z,55
2016-05-03T06:02:39.851Z,55
2016-05-03T06:03:39.728Z,50
2016-05-03T06:04:39.607Z,50
2016-05-03T06:05:39.938Z,50
2016-05-03T06:06:39.987Z,50
2016-05-03T06:07:39.989Z,45
2016-05-03T06:08:40.055Z,45
2016-05-03T06:09:40.089Z,45
2016-05-03T06:10:40.108Z,45
2016-05-03T06:11:39.986Z,45
2016-05-03T06:12:40.175Z,50
2016-05-03T06:13:40.208Z,55
2016-05-03T06:14:40.244Z,60
2016-05-03T06:15:40.277Z,65
2016-05-03T06:16:40.311Z,70
2016-05-03T06:17:40.345Z,70
2016-05-03T06:18:40.380Z,70
2016-05-03T06:19:40.428Z,75
2016-05-03T06:20:40.447Z,85
2016-05-03T06:21:40.480Z,90
2016-05-03T06:22:41.155Z,100
2016-05-03T06:23:40.564Z,105
2016-05-03T06:24:40.583Z,110
2016-05-03T06:25:40.476Z,115
2016-05-03T06:26:40.509Z,120
2016-05-03T06:27:40.529Z,130
2016-05-03T06:28:40.577Z,135
2016-05-03T06:29:40.768Z,125
2016-05-03T06:30:40.787Z,130
2016-05-03T06:31:40.820Z,125
2016-05-03T06:32:40.854Z,130
2016-05-03T06:33:40.716Z,130
2016-05-03T06:34:40.906Z,130
2016-05-03T06:35:40.800Z,130
2016-05-03T06:36:40.834Z,125
2016-05-03T06:37:41.087Z,125
2016-05-03T06:38:41.057Z,125
2016-05-03T06:39:41.123Z,135
2016-05-03T06:40:41.109Z,135
2016-05-03T06:41:41.144Z,150
2016-05-03T06:42:41.178Z,165
2016-05-03T06:43:41.212Z,180
2016-05-03T06:44:41.245Z,195
2016-05-03T06:45:41.294Z,195
2016-05-03T06:46:41.313Z,195
2016-05-03T06:47:41.363Z,210
2016-05-03T06:48:41.225Z,220
2016-05-03T06:49:41.431Z,230
2016-05-03T06:50:41.449Z,240
2016-05-03T06:51:41.483Z,250
2016-05-03T06:52:42.674Z,255
2016-05-03T06:53:41.535Z,265
2016-05-03T06:54:41.444Z,280
2016-05-03T06:55:41.618Z,285
2016-05-03T06:56:41.357Z,290
2016-05-03T06:57:41.702Z,295
2016-05-03T06:58:41.721Z,275
2016-05-03T06:59:41.755Z,295
2016-05-03T07:00:41.632Z,290
2016-05-03T07:01:41.682Z,295
2016-05-03T07:02:41.701Z,270
2016-05-03T07:03:41.750Z,270
2016-05-03T07:04:41.924Z,240
2016-05-03T07:05:41.974Z,215
2016-05-03T07:06:41.993Z,235
2016-05-03T07:07:42.073Z,250
2016-05-03T07:08:42.060Z,265
2016-05-03T07:09:41.953Z,235
2016-05-03T07:10:41.987Z,185
2016-05-03T07:11:42.178Z,160
2016-05-03T07:12:42.196Z,150
2016-05-03T07:13:42.246Z,150
2016-05-03T07:14:42.280Z,145
2016-05-03T07:15:42.314Z,135
2016-05-03T07:16:42.347Z,130
2016-05-03T07:17:42.381Z,125
2016-05-03T07:18:42.416Z,125
2016-05-03T07:19:42.464Z,105
2016-05-03T07:20:42.483Z,105
2016-05-03T07:21:42.517Z,105
2016-05-03T07:22:42.739Z,125
2016-05-03T07:23:42.429Z,165
2016-05-03T07:24:42.619Z,155
2016-05-03T07:25:42.497Z,155
2016-05-03T07:26:42.687Z,140
2016-05-03T07:27:42.565Z,155
2016-05-03T07:28:42.754Z,145
2016-05-03T07:29:42.649Z,165
2016-05-03T07:30:42.666Z,175
2016-05-03T07:31:42.701Z,165
2016-05-03T07:32:42.750Z,175
2016-05-03T07:33:42.924Z,170
2016-05-03T07:34:42.959Z,180
2016-05-03T07:35:42.851Z,205
2016-05-03T07:36:42.901Z,225
2016-05-03T07:37:43.451Z,225
2016-05-03T07:38:42.937Z,220
2016-05-03T07:39:43.160Z,230
2016-05-03T07:40:43.178Z,230
2016-05-03T07:41:43.056Z,230
2016-05-03T07:42:43.074Z,225
2016-05-03T07:43:43.264Z,215
2016-05-03T07:44:43.157Z,215
2016-05-03T07:45:43.331Z,415
2016-05-03T07:46:43.381Z,350
2016-05-03T07:47:43.431Z,1095
2016-05-03T07:48:43.434Z,895
2016-05-03T07:49:43.514Z,285
2016-05-03T07:50:43.502Z,335
2016-05-03T07:51:43.536Z,295
2016-05-03T07:52:43.944Z,320
2016-05-03T07:53:43.650Z,420
2016-05-03T07:54:43.481Z,780
2016-05-03T07:55:43.516Z,840
2016-05-03T07:56:43.721Z,1355
2016-05-03T07:57:43.441Z,685
2016-05-03T07:58:44.163Z,1435
2016-05-03T07:59:43.822Z,1460
2016-05-03T08:00:43.872Z,1450
2016-05-03T08:01:43.735Z,1430
2016-05-03T08:02:43.941Z,1400
2016-05-03T08:03:43.693Z,1370
2016-05-03T08:04:44.008Z,1240
2016-05-03T08:05:44.058Z,1130
2016-05-03T08:06:43.795Z,1240
2016-05-03T08:07:44.157Z,1110
2016-05-03T08:08:44.035Z,915
2016-05-03T08:09:44.209Z,940
2016-05-03T08:10:44.086Z,1005
2016-05-03T08:11:43.809Z,535
2016-05-03T08:12:44.311Z,550
2016-05-03T08:13:44.359Z,305
2016-05-03T08:14:44.395Z,640
2016-05-03T08:15:44.272Z,795
2016-05-03T08:16:44.322Z,315
2016-05-03T08:17:44.356Z,220
2016-05-03T08:18:44.545Z,210
2016-05-03T08:19:44.455Z,270
2016-05-03T08:20:44.472Z,350
2016-05-03T08:21:44.663Z,420
2016-05-03T08:22:45.103Z,255
2016-05-03T08:23:44.591Z,235
2016-05-03T08:24:44.639Z,285
2016-05-03T08:25:44.830Z,1320
2016-05-03T08:26:44.849Z,300
2016-05-03T08:27:44.897Z,375
2016-05-03T08:28:44.932Z,475
2016-05-03T08:29:44.857Z,645
2016-05-03T08:30:44.860Z,625
2016-05-03T08:31:45.143Z,390
2016-05-03T08:32:45.083Z,515
2016-05-03T08:33:44.976Z,250
2016-05-03T08:34:45.166Z,260
2016-05-03T08:35:45.044Z,305
2016-05-03T08:36:45.250Z,500
2016-05-03T08:37:46.456Z,290
2016-05-03T08:38:45.302Z,360
2016-05-03T08:39:45.351Z,290
2016-05-03T08:40:45.073Z,405
2016-05-03T08:41:45.420Z,925
2016-05-03T08:42:45.297Z,365
2016-05-03T08:43:45.362Z,490
2016-05-03T08:44:45.538Z,235
2016-05-03T08:45:45.571Z,1730
2016-05-03T08:46:45.620Z,1825
2016-05-03T08:47:45.656Z,1745
2016-05-03T08:48:45.689Z,1440
2016-05-03T08:49:45.722Z,1675
2016-05-03T08:50:45.772Z,650
2016-05-03T08:51:45.650Z,355
2016-05-03T08:52:46.183Z,245
2016-05-03T08:53:45.561Z,295
2016-05-03T08:54:45.752Z,715
2016-05-03T08:55:45.942Z,435
2016-05-03T08:56:45.836Z,745
2016-05-03T08:57:46.025Z,725
2016-05-03T08:58:46.075Z,485
2016-05-03T08:59:45.969Z,760
2016-05-03T09:00:48.408Z,900
2016-05-03T09:01:46.177Z,540
2016-05-03T09:02:46.226Z,380
2016-05-03T09:03:45.963Z,370
2016-05-03T09:04:46.294Z,610
2016-05-03T09:05:46.188Z,545
2016-05-03T09:06:46.362Z,545
2016-05-03T09:07:46.412Z,290
2016-05-03T09:08:46.462Z,360
2016-05-03T09:09:46.495Z,840
2016-05-03T09:10:46.545Z,320
2016-05-03T09:11:46.563Z,855
2016-05-03T09:12:46.613Z,240
2016-05-03T09:13:46.490Z,380
2016-05-03T09:14:46.540Z,395
2016-05-03T09:15:46.730Z,275
2016-05-03T09:16:46.764Z,230
2016-05-03T09:17:46.673Z,245
2016-05-03T09:18:46.847Z,225
2016-05-03T09:19:46.725Z,925
2016-05-03T09:20:46.759Z,1835
2016-05-03T09:21:46.964Z,1705
2016-05-03T09:22:46.566Z,1940
2016-05-03T09:23:46.877Z,1295
2016-05-03T09:24:46.911Z,2040
2016-05-03T09:25:47.147Z,1665
2016-05-03T09:26:46.994Z,735
2016-05-03T09:27:47.028Z,2095
2016-05-03T09:28:47.234Z,1915
2016-05-03T09:29:47.283Z,1755
2016-05-03T09:30:47.317Z,1575
2016-05-03T09:31:47.335Z,1480
2016-05-03T09:32:47.385Z,1615
2016-05-03T09:33:47.278Z,1815
2016-05-03T09:34:47.453Z,385
2016-05-03T09:35:47.362Z,360
2016-05-03T09:36:47.552Z,1935
2016-05-03T09:37:47.461Z,1835
2016-05-03T09:38:47.651Z,1655
2016-05-03T09:39:47.529Z,1315
2016-05-03T09:40:47.719Z,325
2016-05-03T09:41:47.753Z,530
2016-05-03T09:42:47.646Z,1750
2016-05-03T09:43:47.852Z,1375
2016-05-03T09:44:47.746Z,1785
2016-05-03T09:45:47.936Z,395
2016-05-03T09:46:49.173Z,480
2016-05-03T09:47:48.004Z,540
2016-05-03T09:48:48.069Z,315
2016-05-03T09:49:48.087Z,315
2016-05-03T09:50:48.136Z,265
2016-05-03T09:51:48.046Z,240
2016-05-03T09:52:48.923Z,240
2016-05-03T09:53:48.269Z,250
2016-05-03T09:54:48.148Z,300
2016-05-03T09:55:48.338Z,370
2016-05-03T09:56:48.372Z,610
2016-05-03T09:57:48.281Z,335
2016-05-03T09:58:48.455Z,305
2016-05-03T09:59:48.505Z,345
2016-05-03T10:00:48.538Z,425
2016-05-03T10:01:48.573Z,1890
2016-05-03T10:02:48.638Z,515
2016-05-03T10:03:48.499Z,1425
2016-05-03T10:04:48.549Z,1470
2016-05-03T10:05:48.630Z,615
2016-05-03T10:06:48.804Z,1010
2016-05-03T10:07:48.604Z,640
2016-05-03T10:08:48.873Z,2190
2016-05-03T10:09:48.906Z,820
2016-05-03T10:10:48.956Z,510
2016-05-03T10:11:48.990Z,950
2016-05-03T10:12:49.040Z,1995
2016-05-03T10:13:49.073Z,2000
2016-05-03T10:14:49.107Z,1995
2016-05-03T10:15:48.845Z,2025
2016-05-03T10:16:49.207Z,2030
2016-05-03T10:17:48.928Z,2035
2016-05-03T10:18:49.118Z,1100
2016-05-03T10:19:49.323Z,600
2016-05-03T10:20:49.359Z,1425
2016-05-03T10:21:49.236Z,1275
2016-05-03T10:22:49.644Z,615
2016-05-03T10:23:49.350Z,2025
2016-05-03T10:24:49.228Z,1325
2016-05-03T10:25:49.575Z,535
2016-05-03T10:26:49.609Z,665
2016-05-03T10:27:49.674Z,490
2016-05-03T10:28:49.692Z,440
2016-05-03T10:29:49.758Z,615
2016-05-03T10:30:49.791Z,700
2016-05-03T10:31:49.825Z,1990
2016-05-03T10:32:49.875Z,1960
2016-05-03T10:33:49.908Z,1925
2016-05-03T10:34:49.818Z,1545
2016-05-03T10:35:49.867Z,1785
2016-05-03T10:36:49.730Z,1760
2016-05-03T10:37:51.513Z,1735
2016-05-03T10:38:50.125Z,1785
2016-05-03T10:39:50.175Z,1825
2016-05-03T10:40:50.209Z,1790
2016-05-03T10:41:50.102Z,1735
2016-05-03T10:42:50.308Z,1685
2016-05-03T10:43:50.185Z,955
2016-05-03T10:44:50.391Z,1935
2016-05-03T10:45:50.269Z,1900
2016-05-03T10:46:50.318Z,1930
2016-05-03T10:47:50.524Z,1950
2016-05-03T10:48:50.573Z,2020
2016-05-03T10:49:50.483Z,2105
2016-05-03T10:50:50.657Z,575
2016-05-03T10:51:50.692Z,1215
2016-05-03T10:52:50.585Z,1760
2016-05-03T10:53:50.806Z,1920
2016-05-03T10:54:50.667Z,1600
2016-05-03T10:55:50.734Z,495
2016-05-03T10:56:50.767Z,410
2016-05-03T10:57:50.973Z,270
2016-05-03T10:58:51.039Z,265
2016-05-03T10:59:50.588Z,255
2016-05-03T11:00:50.950Z,250
2016-05-03T11:01:50.844Z,275
2016-05-03T11:02:51.033Z,290
2016-05-03T11:03:51.099Z,275
2016-05-03T11:04:51.289Z,240
2016-05-03T11:05:51.322Z,215
2016-05-03T11:06:51.060Z,210
2016-05-03T11:07:51.453Z,205
2016-05-03T11:08:51.299Z,200
2016-05-03T11:09:51.491Z,210
2016-05-03T11:10:51.524Z,235
2016-05-03T11:11:51.526Z,265
2016-05-03T11:12:51.639Z,280
2016-05-03T11:13:51.656Z,365
2016-05-03T11:14:51.690Z,460
2016-05-03T11:15:51.740Z,370
2016-05-03T11:16:51.774Z,410
2016-05-03T11:17:51.824Z,1310
2016-05-03T11:18:51.842Z,2230
2016-05-03T11:19:51.907Z,625
2016-05-03T11:20:51.972Z,555
2016-05-03T11:21:51.976Z,630
2016-05-03T11:22:52.228Z,350
2016-05-03T11:23:52.059Z,295
2016-05-03T11:24:52.078Z,275
2016-05-03T11:25:52.126Z,285
2016-05-03T11:26:52.208Z,285
2016-05-03T11:27:52.211Z,280
2016-05-03T11:28:52.259Z,270
2016-05-03T11:29:52.278Z,270
2016-05-03T11:30:52.328Z,270
2016-05-03T11:31:52.377Z,275
2016-05-03T11:32:52.411Z,290
2016-05-03T11:33:52.461Z,315
2016-05-03T11:34:52.479Z,370
2016-05-03T11:35:52.216Z,395
2016-05-03T11:36:52.563Z,495
2016-05-03T11:37:52.612Z,2070
2016-05-03T11:38:52.646Z,2060
2016-05-03T11:39:52.664Z,1605
2016-05-03T11:40:52.557Z,2010
2016-05-03T11:41:52.764Z,1900
2016-05-03T11:42:52.797Z,1900
2016-05-03T11:43:52.691Z,1965
2016-05-03T11:44:52.882Z,500
2016-05-03T11:45:52.915Z,420
2016-05-03T11:46:52.807Z,425
2016-05-03T11:47:52.842Z,465
2016-05-03T11:48:53.048Z,360
2016-05-03T11:49:52.926Z,230
2016-05-03T11:50:52.991Z,190
2016-05-03T11:51:53.165Z,190
2016-05-03T11:52:53.231Z,195
2016-05-03T11:53:53.264Z,205
2016-05-03T11:54:53.127Z,220
2016-05-03T11:55:53.176Z,240
2016-05-03T11:56:53.054Z,280
2016-05-03T11:57:53.275Z,325
2016-05-03T11:58:53.309Z,395
2016-05-03T11:59:53.422Z,415
2016-05-03T12:00:53.533Z,515
2016-05-03T12:01:53.568Z,2035
2016-05-03T12:02:53.461Z,2085
2016-05-03T12:03:53.494Z,2085
2016-05-03T12:04:53.747Z,2025
2016-05-03T12:05:53.578Z,1640
2016-05-03T12:06:53.769Z,1925
2016-05-03T12:07:53.912Z,1910
2016-05-03T12:08:53.555Z,1925
2016-05-03T12:09:53.589Z,1965
2016-05-03T12:10:53.795Z,2035
2016-05-03T12:11:54.000Z,2170
2016-05-03T12:12:54.050Z,2255
2016-05-03T12:13:53.927Z,360
2016-05-03T12:14:54.134Z,385
2016-05-03T12:15:54.183Z,300
2016-05-03T12:16:54.217Z,715
2016-05-03T12:17:54.095Z,370
2016-05-03T12:18:54.316Z,295
2016-05-03T12:19:54.351Z,175
2016-05-03T12:20:54.229Z,120
2016-05-03T12:21:54.293Z,105
2016-05-03T12:22:55.671Z,105
2016-05-03T12:23:54.377Z,130
2016-05-03T12:24:54.411Z,145
2016-05-03T12:25:54.617Z,165
2016-05-03T12:26:54.665Z,185
2016-05-03T12:27:54.559Z,195
2016-05-03T12:28:54.750Z,205
2016-05-03T12:29:54.533Z,225
2016-05-03T12:30:54.864Z,225
2016-05-03T12:31:55.070Z,230
2016-05-03T12:32:54.761Z,230
2016-05-03T12:33:54.779Z,220
2016-05-03T12:34:54.828Z,210
2016-05-03T12:35:55.018Z,200
2016-05-03T12:36:54.896Z,215
2016-05-03T12:37:54.977Z,255
2016-05-03T12:38:54.995Z,320
2016-05-03T12:39:55.186Z,420
2016-05-03T12:40:55.063Z,575
2016-05-03T12:41:55.269Z,465
2016-05-03T12:42:55.146Z,335
2016-05-03T12:43:55.336Z,330
2016-05-03T12:44:55.370Z,365
2016-05-03T12:45:55.421Z,420
2016-05-03T12:46:55.455Z,665
2016-05-03T12:47:55.347Z,385
2016-05-03T12:48:55.522Z,2015
2016-05-03T12:49:55.602Z,2060
2016-05-03T12:50:55.480Z,2020
2016-05-03T12:51:55.639Z,1980
2016-05-03T12:52:55.689Z,2000
2016-05-03T12:53:55.567Z,2045
2016-05-03T12:54:55.600Z,2075
2016-05-03T12:55:55.650Z,2015
2016-05-03T12:56:55.840Z,1925
2016-05-03T12:57:55.890Z,1870
2016-05-03T12:58:55.924Z,1910
2016-05-03T12:59:55.834Z,2030
2016-05-03T13:00:56.023Z,2125
2016-05-03T13:01:55.917Z,270
2016-05-03T13:02:56.106Z,260
2016-05-03T13:03:56.172Z,245
2016-05-03T13:04:56.050Z,270
2016-05-03T13:05:56.239Z,1845
2016-05-03T13:06:56.289Z,1795
2016-05-03T13:07:56.291Z,1720
2016-05-03T13:08:56.075Z,1755
2016-05-03T13:09:56.250Z,1805
2016-05-03T13:10:56.456Z,1885
2016-05-03T13:11:56.522Z,1910
2016-05-03T13:12:56.243Z,1900
2016-05-03T13:13:56.589Z,1915
2016-05-03T13:14:56.499Z,1930
2016-05-03T13:15:56.391Z,1945
2016-05-03T13:16:56.722Z,1915
2016-05-03T13:17:56.615Z,1835
2016-05-03T13:18:56.680Z,1795
2016-05-03T13:19:56.871Z,1755
2016-05-03T13:20:56.749Z,745
2016-05-03T13:21:56.970Z,1615
2016-05-03T13:22:56.880Z,520
2016-05-03T13:23:56.945Z,1375
2016-05-03T13:24:56.938Z,1090
2016-05-03T13:25:57.127Z,440
2016-05-03T13:26:57.193Z,615
2016-05-03T13:27:57.107Z,950
2016-05-03T13:28:57.338Z,295
2016-05-03T13:29:57.429Z,350
2016-05-03T13:30:57.519Z,410
2016-05-03T13:31:57.594Z,315
2016-05-03T13:32:57.529Z,270
2016-05-03T13:33:57.421Z,325
2016-05-03T13:34:57.798Z,255
2016-05-03T13:35:57.690Z,280
2016-05-03T13:36:57.912Z,210
2016-05-03T13:37:59.219Z,245
2016-05-03T13:38:57.853Z,1015
2016-05-03T13:39:57.908Z,260
2016-05-03T13:40:57.963Z,1640
2016-05-03T13:41:58.159Z,1555
2016-05-03T13:42:58.197Z,455
2016-05-03T13:43:58.263Z,320
2016-05-03T13:44:58.439Z,255
2016-05-03T13:45:58.835Z,245
2016-05-03T13:46:58.371Z,400
2016-05-03T13:47:58.421Z,1820
2016-05-03T13:48:58.300Z,355
2016-05-03T13:49:58.491Z,205
2016-05-03T13:50:58.557Z,530
2016-05-03T13:51:58.577Z,750
2016-05-03T13:52:58.516Z,405
2016-05-03T13:53:58.676Z,935
2016-05-03T13:54:58.539Z,545
2016-05-03T13:55:58.604Z,185
2016-05-03T13:56:58.639Z,500
2016-05-03T13:57:58.532Z,415
2016-05-03T13:58:58.878Z,190
2016-05-03T13:59:58.897Z,170
2016-05-03T14:00:58.962Z,210
2016-05-03T14:01:58.981Z,365
2016-05-03T14:02:58.890Z,1250
2016-05-03T14:03:59.267Z,195
2016-05-03T14:04:59.364Z,805